KHOE

Details ICAO KHOE
Name HOMERVILLE
Region United States
Timezone America/New_York (UTC-4.0)
Plans Departing 0
Arriving 2
Stats Elevation 186 ft / 57 m (AMSL)
Location 31.055906° -82.774143°
Runways 1
Magnetic Variation 5.881° W
Sunrise 2018-05-27 10:31:02 UTC / 2018-05-27 06:31:02 Local
Sunset 2018-05-28 00:28:24 UTC / 2018-05-27 20:28:24 Local
Advertisement - Login to hide

Runways

ID Width Length Bearing (true) Bearing (mag) Surface Threshold Offset Overrun Length
14 75 ft / 23 m 4,003 ft / 1,220 m 135.52° 141.40° Asphalt 0 ft / 0 m 0 ft / 0 m
32 75 ft / 23 m 4,003 ft / 1,220 m 315.53° 321.41° Asphalt 0 ft / 0 m 0 ft / 0 m

Map

Weather


0- 5 10 15 20 25 30 35+ Temperature / ° C

Clouds and Precipitation
Forecast for 2018-05-27 12:00 UTC. Updated 3 hours ago

Ground ~20,000 ft ~40,000 ft Winds

METAR

KHOE 271335Z AUTO 06004KT 10SM -RA OVC060 22/21 A2993 RMK AO2

TAF

Not found

Frequencies

Unicom 122.90 MHz CTAF
Approach 126.60 MHz VALDOSTA APP/DEP
Approach 119.52 MHz VALDOSTA APP/DEP
Warning: Do not use this data for real-world aviation or navigation. No guarantee of current accuracy is given.